LFCR/RDZ METAR and TAF weather

Enter ICAO airport designator
Station Type Date Time Source
LFCR METAR 2019/08/22 16:00 UTC NOAA

LFCR 221600Z AUTO 29007KT 250V310 CAVOK 26/14 Q1023 NOSIG


Station Type Date Time Source
LFCR Decoded METAR 2019/08/22 16:00 UTC NOAA

Station name not available
Aug 22, 2019 - 12:00 PM EDT / 2019.08.22 1600 UTC
Wind: from the WNW (290 degrees) at 8 MPH (7 KT) (direction variable):0
Visibility: greater than 7 mile(s):0
Temperature: 78 F (26 C)
Dew Point: 57 F (14 C)
Relative Humidity: 47%
Pressure (altimeter): 30.21 in. Hg (1023 hPa)
ob: LFCR 221600Z AUTO 29007KT 250V310 CAVOK 26/14 Q1023 NOSIG
cycle: 16

Station Type Date Time Source
LFCR TAF 2019/08/22 12:21 UTC NOAA

TAF LFCR 221100Z 2212/2312 VRB02KT CAVOK

Example: see airport list